Time;durP1;ratioP1;P1;durP2;ratioP2;P2;SDS_P1;SDS_P2;PMS_P1;PMS_P2;Temp;Humidity;BMP_temperature;BMP_pressure;BME280_temperature;BME280_humidity;BME280_pressure;Samples;Min_cycle;Max_cycle;Signal;HPM_P1;HPM_P2
2022/07/12 00:02:13;;;;;;;5.28;2.15;;;24.40;90.50;;;;;;5030670;28;20045;-67
2022/07/12 00:04:40;;;;;;;5.28;1.85;;;24.40;90.50;;;;;;5029461;28;20049;-67
2022/07/12 00:07:08;;;;;;;3.30;1.98;;;24.40;90.60;;;;;;5045809;28;20041;-67
2022/07/12 00:09:35;;;;;;;6.60;2.72;;;24.40;90.70;;;;;;5029487;28;20045;-67
2022/07/12 00:12:04;;;;;;;4.13;1.90;;;24.40;90.80;;;;;;5012698;28;20049;-67
2022/07/12 00:14:31;;;;;;;5.25;2.15;;;24.40;90.90;;;;;;5029364;28;20376;-67
2022/07/12 00:16:59;;;;;;;3.00;1.90;;;24.40;91.00;;;;;;5045560;28;20045;-67
2022/07/12 00:19:27;;;;;;;6.03;3.25;;;24.40;91.10;;;;;;5013264;28;20049;-67
2022/07/12 00:21:54;;;;;;;3.45;1.75;;;24.40;91.30;;;;;;5029239;28;20419;-67
2022/07/12 00:24:22;;;;;;;4.15;1.90;;;24.40;91.40;;;;;;5031430;28;20055;-67
2022/07/12 00:26:50;;;;;;;2.65;1.50;;;24.40;91.40;;;;;;5033280;28;20067;-66
2022/07/12 00:29:17;;;;;;;4.45;1.70;;;24.40;91.60;;;;;;5030215;28;20053;-67
2022/07/12 00:31:45;;;;;;;2.75;1.63;;;24.30;91.70;;;;;;5032624;28;20049;-66
2022/07/12 00:34:12;;;;;;;3.60;1.90;;;24.40;91.80;;;;;;5016242;28;20120;-67
2022/07/12 00:36:40;;;;;;;6.15;2.10;;;24.30;91.90;;;;;;5033030;28;20131;-69
2022/07/12 00:39:08;;;;;;;4.25;1.80;;;24.30;92.00;;;;;;5033102;28;20091;-66
2022/07/12 00:41:35;;;;;;;3.15;1.70;;;24.20;92.00;;;;;;5033080;28;20045;-66
2022/07/12 00:44:03;;;;;;;4.40;1.40;;;24.20;92.10;;;;;;5049108;28;20138;-66
2022/07/12 00:46:31;;;;;;;2.65;1.58;;;24.20;92.20;;;;;;5033634;28;20142;-67
2022/07/12 00:49:00;;;;;;;10.45;2.00;;;24.20;92.30;;;;;;5032750;28;20119;-66
2022/07/12 00:51:28;;;;;;;3.70;1.70;;;24.20;92.30;;;;;;5049204;28;20067;-66
2022/07/12 00:53:58;;;;;;;3.75;1.70;;;24.20;92.40;;;;;;5049283;28;20041;-66
2022/07/12 00:56:26;;;;;;;5.10;1.98;;;24.20;92.40;;;;;;5032943;28;20056;-67
2022/07/12 00:58:54;;;;;;;3.97;2.03;;;24.10;92.40;;;;;;5034052;28;20049;-67
2022/07/12 01:01:25;;;;;;;5.25;1.83;;;24.10;92.40;;;;;;5000159;28;20045;-67
2022/07/12 01:03:52;;;;;;;3.28;1.92;;;24.10;92.50;;;;;;5032974;28;20451;-66
2022/07/12 01:06:20;;;;;;;2.67;1.80;;;24.10;92.40;;;;;;5032263;28;20045;-66
2022/07/12 01:08:49;;;;;;;2.60;1.95;;;24.10;92.40;;;;;;5049082;28;20068;-67
2022/07/12 01:11:17;;;;;;;3.90;1.60;;;24.10;92.30;;;;;;5032600;28;20085;-66
2022/07/12 01:13:45;;;;;;;3.00;1.52;;;24.10;92.30;;;;;;5032564;28;20072;-69
2022/07/12 01:16:14;;;;;;;4.13;1.85;;;24.10;92.20;;;;;;5030374;28;20491;-66
2022/07/12 01:18:44;;;;;;;5.15;1.90;;;24.10;92.20;;;;;;5032433;28;20045;-67
2022/07/12 01:21:17;;;;;;;4.32;2.03;;;24.10;92.20;;;;;;5032269;28;20199;-68
2022/07/12 01:23:46;;;;;;;3.67;1.80;;;24.10;92.20;;;;;;5031926;28;20176;-67
2022/07/12 01:26:14;;;;;;;6.00;2.88;;;24.10;92.20;;;;;;5048272;28;20037;-67
2022/07/12 01:28:42;;;;;;;2.70;1.48;;;24.10;92.20;;;;;;5032314;28;20119;-68
2022/07/12 01:31:09;;;;;;;5.13;2.53;;;24.10;92.20;;;;;;5031853;28;20447;-67
2022/07/12 01:33:37;;;;;;;3.25;1.83;;;24.10;92.30;;;;;;5032151;28;20198;-68
2022/07/12 01:36:05;;;;;;;3.17;1.92;;;24.10;92.30;;;;;;5031533;28;20075;-67
2022/07/12 01:38:33;;;;;;;4.85;1.95;;;24.10;92.40;;;;;;5032116;28;20053;-66
2022/07/12 01:41:00;;;;;;;3.38;1.90;;;24.10;92.40;;;;;;5032014;28;20049;-68
2022/07/12 01:43:29;;;;;;;2.97;1.73;;;24.10;92.50;;;;;;5031842;28;20069;-69
2022/07/12 01:45:56;;;;;;;2.53;1.90;;;24.00;92.60;;;;;;5031432;28;20751;-66
2022/07/12 01:48:24;;;;;;;5.22;1.98;;;24.00;92.70;;;;;;5031108;28;20045;-68
2022/07/12 01:50:52;;;;;;;4.85;2.08;;;24.00;92.90;;;;;;5031329;28;20068;-67
2022/07/12 01:53:20;;;;;;;1.88;1.30;;;24.00;93.00;;;;;;5047859;28;20041;-68
2022/07/12 01:55:48;;;;;;;3.13;1.52;;;24.00;93.10;;;;;;5048415;28;20049;-68
2022/07/12 01:58:16;;;;;;;3.63;2.17;;;24.00;93.20;;;;;;5031312;28;20435;-68
2022/07/12 02:00:50;;;;;;;4.55;2.33;;;24.00;93.20;;;;;;5032674;28;20768;-67
2022/07/12 02:03:19;;;;;;;6.32;2.08;;;24.00;93.30;;;;;;5015406;28;20045;-67
2022/07/12 02:05:47;;;;;;;3.20;1.80;;;24.00;93.40;;;;;;5048326;28;20042;-67
2022/07/12 02:08:15;;;;;;;3.78;1.55;;;24.00;93.40;;;;;;5015089;28;20060;-66
2022/07/12 02:10:43;;;;;;;3.40;1.50;;;24.00;93.40;;;;;;5028760;28;20049;-70
2022/07/12 02:13:11;;;;;;;6.05;1.52;;;23.90;93.30;;;;;;5047962;28;20051;-67
2022/07/12 02:15:39;;;;;;;3.38;2.03;;;23.90;93.40;;;;;;5048030;28;20092;-66
2022/07/12 02:18:07;;;;;;;3.90;2.03;;;24.00;93.50;;;;;;5014514;28;20041;-66
2022/07/12 02:20:34;;;;;;;3.13;1.70;;;23.90;93.50;;;;;;5014778;28;20055;-67
2022/07/12 02:23:02;;;;;;;4.03;2.00;;;23.90;93.50;;;;;;5015031;28;20099;-66
2022/07/12 02:25:31;;;;;;;2.88;1.83;;;23.90;93.50;;;;;;5047925;28;20488;-67
2022/07/12 02:27:58;;;;;;;3.67;1.70;;;23.90;93.50;;;;;;5030885;28;20047;-66
2022/07/12 02:30:26;;;;;;;3.83;1.85;;;23.90;93.50;;;;;;5013809;28;20061;-67
2022/07/12 02:32:54;;;;;;;2.67;1.75;;;23.90;93.60;;;;;;5014125;28;20466;-67
2022/07/12 02:35:22;;;;;;;3.50;2.00;;;23.90;93.60;;;;;;5031041;28;20091;-67
2022/07/12 02:37:50;;;;;;;3.92;2.00;;;23.90;93.60;;;;;;5047639;28;20072;-69
2022/07/12 02:43:03;;;;;;;2.28;1.60;;;23.90;93.80;;;;;;5031736;28;20037;-67
2022/07/12 02:45:31;;;;;;;3.28;1.95;;;23.80;93.70;;;;;;5030686;28;20613;-67
2022/07/12 02:47:58;;;;;;;4.80;2.15;;;23.80;93.80;;;;;;5046544;28;20048;-67
2022/07/12 02:50:26;;;;;;;5.05;1.92;;;23.80;93.80;;;;;;5047131;28;20076;-67
2022/07/12 02:52:53;;;;;;;2.95;1.67;;;23.80;93.80;;;;;;5030619;28;20049;-67
2022/07/12 02:55:21;;;;;;;2.70;1.73;;;23.80;93.80;;;;;;5013860;28;20107;-66
2022/07/12 02:57:48;;;;;;;7.72;2.25;;;23.80;93.90;;;;;;5031460;28;20436;-68
2022/07/12 03:00:16;;;;;;;5.20;1.77;;;23.70;93.90;;;;;;5029187;28;20452;-66
2022/07/12 03:02:44;;;;;;;3.22;1.77;;;23.70;93.90;;;;;;5023792;28;20057;-66
2022/07/12 03:05:11;;;;;;;3.90;2.00;;;23.70;94.00;;;;;;5030208;28;20545;-67
2022/07/12 03:07:39;;;;;;;5.43;2.20;;;23.60;94.00;;;;;;5013611;28;20450;-69
2022/07/12 03:10:07;;;;;;;7.03;1.83;;;23.60;94.10;;;;;;5029806;28;20499;-67
2022/07/12 03:12:35;;;;;;;7.30;2.55;;;23.60;94.10;;;;;;5013846;28;20144;-66
2022/07/12 03:15:04;;;;;;;2.75;1.95;;;23.60;94.10;;;;;;5030317;28;20124;-66
2022/07/12 03:17:32;;;;;;;3.50;1.83;;;23.60;94.10;;;;;;5030362;28;20485;-68
2022/07/12 03:20:01;;;;;;;4.28;1.73;;;23.60;94.20;;;;;;5046667;28;20045;-66
2022/07/12 03:22:28;;;;;;;2.35;1.52;;;23.60;94.30;;;;;;5046598;28;20072;-67
2022/07/12 03:24:56;;;;;;;3.35;1.90;;;23.60;94.30;;;;;;5030105;28;20443;-66
2022/07/12 03:27:23;;;;;;;5.20;2.33;;;23.60;94.40;;;;;;5031108;28;20045;-66
2022/07/12 03:29:51;;;;;;;3.92;1.98;;;23.60;94.40;;;;;;5029988;28;20103;-67
2022/07/12 03:32:19;;;;;;;4.10;2.10;;;23.50;94.50;;;;;;5029474;28;20046;-67
2022/07/12 03:34:46;;;;;;;5.25;2.35;;;23.50;94.60;;;;;;5029709;28;20045;-66
2022/07/12 03:37:14;;;;;;;8.38;2.30;;;23.50;94.60;;;;;;5029840;28;20660;-66
2022/07/12 03:39:42;;;;;;;5.00;2.95;;;23.50;94.70;;;;;;5030660;28;20542;-66
2022/07/12 03:42:13;;;;;;;3.72;1.75;;;23.50;94.70;;;;;;5012970;28;20046;-68
2022/07/12 03:44:40;;;;;;;5.15;2.47;;;23.60;94.80;;;;;;5029955;28;20053;-66
2022/07/12 03:47:08;;;;;;;3.10;1.90;;;23.60;94.90;;;;;;5046254;28;20049;-68
2022/07/12 03:49:35;;;;;;;3.15;2.03;;;23.60;94.90;;;;;;5029531;28;20053;-69
2022/07/12 03:52:03;;;;;;;2.92;1.60;;;23.60;94.90;;;;;;5029354;28;20048;-67
2022/07/12 03:54:31;;;;;;;4.30;2.35;;;23.70;94.90;;;;;;5046003;28;20491;-67
2022/07/12 03:57:13;;;;;;;4.13;2.13;;;23.80;95.00;;;;;;5027113;28;20039;-67
2022/07/12 03:59:46;;;;;;;5.18;1.75;;;23.80;94.90;;;;;;5029572;28;20049;-66
2022/07/12 04:02:13;;;;;;;4.05;1.90;;;23.90;94.90;;;;;;5029021;28;20053;-66
2022/07/12 04:04:41;;;;;;;3.15;1.73;;;24.00;94.90;;;;;;5045785;28;20403;-66
2022/07/12 04:07:09;;;;;;;8.85;2.10;;;24.00;94.90;;;;;;5029397;28;20050;-67
2022/07/12 04:09:37;;;;;;;4.68;2.58;;;24.20;94.80;;;;;;5045816;28;20096;-66
2022/07/12 04:12:05;;;;;;;5.03;2.50;;;24.20;94.90;;;;;;5045207;28;20104;-66
2022/07/12 04:14:33;;;;;;;5.30;2.47;;;24.30;94.80;;;;;;5028931;28;20558;-69
2022/07/12 04:17:00;;;;;;;4.35;2.55;;;24.30;94.80;;;;;;5045413;28;20045;-69
2022/07/12 04:19:28;;;;;;;4.70;1.67;;;24.40;94.70;;;;;;5013023;28;20400;-66
2022/07/12 04:21:56;;;;;;;4.43;1.73;;;24.50;94.70;;;;;;5012859;28;20033;-67
2022/07/12 04:24:23;;;;;;;4.68;1.90;;;24.60;94.60;;;;;;5045422;28;20494;-66
2022/07/12 04:26:51;;;;;;;4.75;2.00;;;24.70;94.50;;;;;;5012732;28;20175;-68
2022/07/12 04:29:20;;;;;;;9.60;2.10;;;24.80;94.50;;;;;;5012457;28;20144;-66
2022/07/12 04:31:48;;;;;;;3.75;1.88;;;24.90;94.40;;;;;;5028495;28;20057;-67
2022/07/12 04:34:17;;;;;;;2.80;1.50;;;25.00;94.20;;;;;;5045247;28;20376;-66
2022/07/12 04:36:48;;;;;;;5.05;2.30;;;25.10;94.20;;;;;;5029193;28;20041;-66
2022/07/12 04:39:16;;;;;;;3.30;1.50;;;25.20;94.20;;;;;;5045329;28;20042;-67
2022/07/12 04:41:43;;;;;;;3.95;2.00;;;25.30;94.00;;;;;;5028907;28;20457;-66
2022/07/12 04:44:11;;;;;;;3.13;1.67;;;25.40;93.90;;;;;;5028810;28;20041;-67
2022/07/12 04:46:39;;;;;;;4.85;1.90;;;25.50;93.70;;;;;;5029150;28;20038;-66
2022/07/12 04:49:06;;;;;;;6.72;2.10;;;25.70;93.60;;;;;;5035652;28;20045;-66
2022/07/12 04:51:34;;;;;;;12.90;2.63;;;25.80;93.50;;;;;;5027059;28;20042;-73
2022/07/12 04:54:01;;;;;;;4.57;2.72;;;25.90;93.40;;;;;;5011207;28;20045;-68
2022/07/12 04:56:29;;;;;;;5.15;2.00;;;26.00;93.30;;;;;;5020099;28;20845;-68
2022/07/12 04:58:57;;;;;;;4.28;2.08;;;26.10;93.10;;;;;;5008775;28;20133;-67
2022/07/12 05:01:30;;;;;;;4.68;1.50;;;26.20;93.10;;;;;;4988699;28;20042;-67
2022/07/12 05:03:58;;;;;;;4.32;1.60;;;26.30;93.00;;;;;;5012168;28;20120;-67
2022/07/12 05:06:25;;;;;;;4.35;1.85;;;26.50;92.80;;;;;;5012615;28;20491;-66
2022/07/12 05:08:53;;;;;;;11.73;2.50;;;26.60;92.60;;;;;;5028928;28;20076;-66
2022/07/12 05:11:20;;;;;;;7.88;1.90;;;26.70;92.60;;;;;;5047801;28;20503;-68
2022/07/12 05:13:48;;;;;;;4.95;2.50;;;26.80;92.40;;;;;;5032665;28;20056;-69
2022/07/12 05:16:16;;;;;;;5.45;2.10;;;26.90;92.30;;;;;;5032131;28;20502;-69
2022/07/12 05:18:43;;;;;;;4.15;1.63;;;27.00;92.10;;;;;;5032120;28;20080;-67
2022/07/12 05:21:11;;;;;;;6.03;2.30;;;27.10;91.80;;;;;;5032268;28;20053;-66
2022/07/12 05:23:39;;;;;;;4.65;1.65;;;27.20;91.60;;;;;;5032396;28;20045;-67
2022/07/12 05:26:06;;;;;;;9.52;2.00;;;27.30;91.50;;;;;;5015471;28;20063;-67
2022/07/12 05:28:35;;;;;;;3.13;1.70;;;27.30;91.30;;;;;;5016070;28;20060;-68
2022/07/12 05:31:03;;;;;;;6.88;1.92;;;27.50;91.10;;;;;;5031344;28;20072;-66
2022/07/12 05:33:30;;;;;;;6.68;1.90;;;27.60;91.00;;;;;;5031939;28;20061;-68
2022/07/12 05:35:58;;;;;;;3.85;1.90;;;27.70;90.80;;;;;;5031834;28;20512;-67
2022/07/12 05:38:27;;;;;;;4.15;1.67;;;27.70;90.60;;;;;;5033354;28;20045;-67
2022/07/12 05:40:54;;;;;;;4.25;1.80;;;27.80;90.40;;;;;;5032918;28;20045;-67
2022/07/12 05:43:22;;;;;;;3.13;1.90;;;27.90;90.30;;;;;;5031813;28;20044;-67
2022/07/12 05:45:49;;;;;;;5.03;1.70;;;28.00;90.20;;;;;;5032952;28;20037;-67
2022/07/12 05:48:17;;;;;;;5.68;1.85;;;28.10;90.10;;;;;;5015782;28;20098;-67
2022/07/12 05:50:44;;;;;;;5.82;2.45;;;28.20;89.50;;;;;;5031603;28;20045;-67
2022/07/12 05:53:24;;;;;;;5.18;1.67;;;28.20;88.70;;;;;;5032150;28;20053;-67
2022/07/12 05:55:53;;;;;;;5.20;1.73;;;28.30;88.50;;;;;;5011165;28;20115;-66
2022/07/12 05:58:21;;;;;;;6.53;2.13;;;28.50;88.00;;;;;;5011561;28;20050;-67
2022/07/12 06:00:49;;;;;;;4.00;1.83;;;28.70;87.90;;;;;;5028085;28;20092;-70
2022/07/12 06:03:17;;;;;;;5.30;1.88;;;28.70;86.80;;;;;;5011167;28;20052;-67
2022/07/12 06:05:44;;;;;;;5.65;1.50;;;28.80;86.50;;;;;;5027964;28;20058;-66
2022/07/12 06:08:12;;;;;;;7.57;2.53;;;28.90;86.00;;;;;;5012474;28;20038;-67
2022/07/12 06:10:40;;;;;;;1.85;1.40;;;29.00;85.40;;;;;;4995273;28;20077;-66
2022/07/12 06:13:07;;;;;;;2.67;1.40;;;29.10;84.60;;;;;;5011473;28;20050;-67
2022/07/12 06:15:35;;;;;;;5.22;2.10;;;29.20;84.00;;;;;;5011801;28;20067;-70
2022/07/12 06:18:03;;;;;;;2.80;1.40;;;29.30;83.40;;;;;;5027620;28;20048;-66
2022/07/12 06:20:31;;;;;;;3.42;1.63;;;29.30;82.60;;;;;;5011377;28;20050;-67
2022/07/12 06:22:58;;;;;;;4.57;1.67;;;29.40;82.60;;;;;;5010562;28;20123;-68
2022/07/12 06:25:26;;;;;;;5.07;1.42;;;29.50;82.50;;;;;;5012411;28;20073;-67
2022/07/12 06:28:10;;;;;;;4.88;1.33;;;29.50;82.00;;;;;;5025434;28;20046;-67
2022/07/12 06:30:38;;;;;;;3.65;1.38;;;29.60;81.00;;;;;;5027205;28;20093;-68
2022/07/12 06:33:06;;;;;;;2.90;1.50;;;29.80;80.90;;;;;;5027511;28;20480;-67
2022/07/12 06:35:34;;;;;;;6.50;1.67;;;29.80;79.50;;;;;;5027059;28;20046;-67
2022/07/12 06:38:02;;;;;;;3.47;1.40;;;29.80;79.00;;;;;;5010627;28;20145;-67
2022/07/12 06:40:29;;;;;;;2.92;1.27;;;30.00;78.40;;;;;;5011228;28;20049;-67
2022/07/12 06:42:57;;;;;;;3.42;2.00;;;30.00;78.30;;;;;;5010863;28;20496;-68
2022/07/12 06:45:25;;;;;;;3.42;1.45;;;30.00;78.40;;;;;;5028771;28;20053;-67
2022/07/12 06:47:53;;;;;;;3.58;1.30;;;30.10;77.80;;;;;;5030120;28;20088;-67
2022/07/12 06:50:21;;;;;;;4.13;1.60;;;30.20;77.40;;;;;;5030544;28;20073;-68
2022/07/12 06:52:49;;;;;;;2.22;1.20;;;30.20;77.80;;;;;;5030570;28;20048;-69
2022/07/12 06:55:17;;;;;;;4.60;1.30;;;30.20;75.30;;;;;;5031849;28;20051;-67
2022/07/12 06:57:44;;;;;;;3.15;1.58;;;30.20;73.70;;;;;;5031802;28;20053;-68
2022/07/12 07:00:12;;;;;;;3.45;1.50;;;30.30;74.10;;;;;;5030381;28;20049;-67
2022/07/12 07:02:40;;;;;;;6.50;2.20;;;30.30;73.80;;;;;;5030071;28;20056;-67
2022/07/12 07:05:08;;;;;;;1.83;1.27;;;30.40;71.90;;;;;;5031342;28;20152;-68
2022/07/12 07:07:35;;;;;;;4.05;1.40;;;30.40;69.10;;;;;;5030435;28;20049;-68
2022/07/12 07:10:03;;;;;;;2.83;1.30;;;30.40;67.90;;;;;;5030379;28;20053;-67
2022/07/12 07:12:31;;;;;;;3.58;1.33;;;30.50;67.20;;;;;;5030604;28;20045;-67
2022/07/12 07:14:58;;;;;;;3.45;1.40;;;30.40;67.50;;;;;;5029217;28;20049;-69
2022/07/12 07:17:26;;;;;;;2.25;1.10;;;30.30;68.20;;;;;;5030039;28;20495;-67
2022/07/12 07:19:54;;;;;;;4.20;1.35;;;30.30;67.70;;;;;;5029998;28;20052;-67
2022/07/12 07:22:22;;;;;;;6.22;1.42;;;30.40;65.50;;;;;;5029955;28;20046;-67
2022/07/12 07:24:50;;;;;;;2.72;1.40;;;30.50;65.30;;;;;;5013860;28;20148;-67
2022/07/12 07:27:17;;;;;;;3.00;1.40;;;30.60;66.40;;;;;;5030520;28;20507;-67
2022/07/12 07:32:31;;;;;;;4.20;1.40;;;30.60;66.50;;;;;;5030508;28;20128;-67
2022/07/12 07:34:59;;;;;;;4.07;1.42;;;30.40;67.30;;;;;;5030750;28;20084;-67
2022/07/12 07:37:26;;;;;;;2.38;1.13;;;30.50;68.10;;;;;;5045581;28;20072;-69
2022/07/12 07:39:54;;;;;;;2.00;1.38;;;30.60;68.30;;;;;;5029635;28;20045;-67
2022/07/12 07:42:21;;;;;;;3.78;1.60;;;30.70;69.90;;;;;;5013183;28;20049;-67
2022/07/12 07:44:49;;;;;;;1.88;1.30;;;30.70;68.70;;;;;;5029974;28;20052;-67
2022/07/12 07:47:31;;;;;;;2.72;1.67;;;30.70;67.10;;;;;;5030028;28;20057;-66
2022/07/12 07:49:59;;;;;;;4.32;1.83;;;30.80;68.20;;;;;;5029738;28;20041;-67
2022/07/12 07:52:26;;;;;;;3.33;1.52;;;30.80;69.50;;;;;;5029099;28;20100;-68
2022/07/12 07:54:54;;;;;;;6.65;1.88;;;30.90;69.40;;;;;;5029169;28;20772;-66
2022/07/12 07:57:22;;;;;;;2.40;1.40;;;30.80;69.90;;;;;;5029725;28;20057;-66
2022/07/12 07:59:50;;;;;;;3.92;1.40;;;30.90;70.80;;;;;;5012991;28;20050;-68
2022/07/12 08:02:17;;;;;;;3.20;1.85;;;30.90;69.70;;;;;;5029664;28;20046;-66
2022/07/12 08:04:45;;;;;;;8.40;1.40;;;30.90;68.90;;;;;;5029432;28;20045;-67
2022/07/12 08:07:13;;;;;;;4.95;1.50;;;30.90;69.00;;;;;;5029392;28;20403;-66
2022/07/12 08:09:50;;;;;;;6.68;2.08;;;31.00;68.80;;;;;;5030392;28;20514;-66
2022/07/12 08:12:18;;;;;;;2.75;1.50;;;31.10;67.10;;;;;;5030346;28;20045;-66
2022/07/12 08:14:47;;;;;;;3.35;1.63;;;31.10;67.60;;;;;;5030821;28;20100;-66
2022/07/12 08:17:15;;;;;;;4.70;1.67;;;31.20;68.40;;;;;;5030492;28;20041;-68
2022/07/12 08:19:43;;;;;;;2.13;1.45;;;31.30;67.50;;;;;;5028847;28;20053;-67
2022/07/12 08:22:10;;;;;;;5.40;1.70;;;31.30;66.20;;;;;;5029448;28;20073;-67
2022/07/12 08:24:39;;;;;;;3.17;1.10;;;31.30;66.80;;;;;;5030332;28;20133;-66
2022/07/12 08:27:06;;;;;;;1.63;1.10;;;31.20;65.40;;;;;;5045794;28;20229;-66
2022/07/12 08:29:34;;;;;;;2.58;1.20;;;31.30;63.10;;;;;;5029058;28;20407;-66
2022/07/12 08:32:02;;;;;;;5.63;1.20;;;31.30;62.30;;;;;;5030093;28;20046;-66
2022/07/12 08:34:30;;;;;;;4.90;1.60;;;31.30;62.80;;;;;;5045518;28;20057;-68
2022/07/12 08:36:57;;;;;;;3.15;1.20;;;31.40;64.60;;;;;;5029363;28;20053;-66
2022/07/12 08:39:25;;;;;;;3.92;1.33;;;31.40;65.60;;;;;;5026348;28;20387;-66
2022/07/12 08:41:53;;;;;;;3.05;1.27;;;31.40;64.80;;;;;;5030495;28;20092;-66
2022/07/12 08:44:20;;;;;;;1.48;1.20;;;31.40;65.00;;;;;;5030077;28;20647;-68
2022/07/12 08:46:48;;;;;;;1.52;1.10;;;31.40;63.40;;;;;;5033958;28;20046;-66
2022/07/12 08:49:16;;;;;;;3.17;1.25;;;31.10;62.10;;;;;;5032891;28;20045;-66
2022/07/12 08:51:43;;;;;;;1.40;1.00;;;31.10;62.90;;;;;;5016162;28;20045;-67
2022/07/12 08:54:12;;;;;;;2.38;1.40;;;31.20;62.40;;;;;;5033151;28;20037;-66
2022/07/12 08:56:42;;;;;;;2.92;1.05;;;31.20;62.50;;;;;;5033188;28;20136;-67
2022/07/12 08:59:17;;;;;;;2.70;1.48;;;31.10;62.30;;;;;;5033066;28;20045;-67
2022/07/12 09:01:52;;;;;;;2.53;1.20;;;31.20;62.30;;;;;;5016399;28;20103;-67
2022/07/12 09:04:25;;;;;;;1.40;1.00;;;31.20;61.50;;;;;;5033735;28;20096;-67
2022/07/12 09:06:54;;;;;;;3.08;1.50;;;31.30;62.40;;;;;;5033882;28;20435;-66
2022/07/12 09:09:30;;;;;;;2.30;1.23;;;31.40;62.50;;;;;;5033776;28;20054;-66
2022/07/12 09:11:58;;;;;;;1.38;0.98;;;31.50;62.20;;;;;;5032812;28;20049;-65
2022/07/12 09:14:26;;;;;;;1.70;1.15;;;31.50;60.60;;;;;;5048880;28;20041;-66
2022/07/12 09:17:09;;;;;;;2.35;1.20;;;31.40;60.80;;;;;;5032793;28;20187;-66
2022/07/12 09:19:37;;;;;;;1.50;1.27;;;31.40;59.90;;;;;;5033750;28;20041;-68
2022/07/12 09:22:16;;;;;;;2.08;1.15;;;31.40;59.80;;;;;;5015659;28;20069;-69
2022/07/12 09:24:44;;;;;;;1.88;1.00;;;31.30;58.90;;;;;;5033553;28;20234;-68
2022/07/12 09:27:12;;;;;;;2.17;1.15;;;31.40;59.50;;;;;;5032382;28;20045;-67
2022/07/12 09:29:47;;;;;;;4.00;1.83;;;31.30;60.20;;;;;;5029824;28;20132;-67
2022/07/12 09:37:48;;;;;;;2.15;1.13;;;31.30;59.40;;;;;;5033018;28;20041;-68
2022/07/12 09:40:17;;;;;;;1.83;1.05;;;31.30;59.30;;;;;;5048481;28;20037;-66
2022/07/12 09:42:45;;;;;;;1.88;1.30;;;31.30;58.80;;;;;;5031919;28;20460;-69
2022/07/12 09:45:13;;;;;;;2.35;1.00;;;31.30;59.00;;;;;;5033025;28;20060;-67
2022/07/12 09:47:44;;;;;;;3.70;1.15;;;31.40;58.70;;;;;;5032663;28;20076;-67
2022/07/12 09:50:13;;;;;;;2.58;1.02;;;31.40;58.20;;;;;;5031398;28;20069;-66
2022/07/12 09:52:44;;;;;;;2.13;1.02;;;31.40;58.80;;;;;;5048355;28;20506;-66
2022/07/12 09:55:16;;;;;;;3.05;1.13;;;31.40;58.50;;;;;;5033033;28;20069;-66
2022/07/12 09:57:45;;;;;;;2.28;1.17;;;31.30;58.90;;;;;;5014661;28;20411;-67
2022/07/12 10:00:13;;;;;;;2.58;1.30;;;31.40;59.10;;;;;;5031521;28;20037;-66
2022/07/12 10:02:42;;;;;;;1.88;1.10;;;31.50;59.30;;;;;;5047824;28;20041;-67
2022/07/12 10:05:11;;;;;;;2.03;1.08;;;31.40;58.70;;;;;;5032707;28;20042;-66
2022/07/12 10:07:39;;;;;;;1.48;1.00;;;31.40;58.40;;;;;;5032560;28;20046;-68
2022/07/12 10:10:09;;;;;;;1.52;0.93;;;31.40;57.60;;;;;;5031551;28;20045;-68
2022/07/12 10:12:37;;;;;;;1.52;1.00;;;31.20;57.50;;;;;;5031045;28;20204;-66
2022/07/12 10:15:20;;;;;;;2.97;1.17;;;31.30;58.50;;;;;;5031474;28;20499;-69
2022/07/12 10:17:54;;;;;;;2.10;1.13;;;31.30;59.50;;;;;;5032806;28;20079;-67
2022/07/12 10:20:24;;;;;;;3.05;0.90;;;31.30;59.00;;;;;;5029693;28;20045;-67
2022/07/12 10:23:15;;;;;;;3.55;1.17;;;31.30;59.50;;;;;;5015102;28;20056;-67
2022/07/12 10:25:43;;;;;;;5.45;2.03;;;31.40;59.80;;;;;;5031358;28;20415;-66
2022/07/12 10:28:11;;;;;;;2.63;1.48;;;31.30;59.90;;;;;;5031227;28;20061;-67
2022/07/12 10:30:47;;;;;;;2.40;1.10;;;31.40;59.70;;;;;;5014233;28;20072;-66
2022/07/12 10:33:23;;;;;;;2.00;1.00;;;31.40;59.30;;;;;;5014728;28;20515;-66
2022/07/12 10:36:01;;;;;;;2.67;1.50;;;31.40;59.50;;;;;;5032346;28;20670;-69
2022/07/12 10:38:29;;;;;;;3.15;1.38;;;31.40;60.10;;;;;;5032060;28;20486;-66
2022/07/12 10:40:57;;;;;;;1.63;1.23;;;31.40;60.90;;;;;;5014432;28;20046;-66
2022/07/12 10:46:18;;;;;;;1.95;1.25;;;31.40;60.70;;;;;;5030270;28;20048;-65
2022/07/12 10:48:47;;;;;;;2.65;1.25;;;31.40;59.90;;;;;;5031542;28;20384;-66
2022/07/12 10:51:16;;;;;;;3.90;1.63;;;31.20;60.00;;;;;;5021783;28;20132;-66
2022/07/12 10:53:45;;;;;;;4.82;1.45;;;31.10;60.10;;;;;;5031536;28;20041;-66
2022/07/12 10:56:21;;;;;;;2.22;1.38;;;31.10;61.40;;;;;;5008292;28;20422;-69
2022/07/12 10:58:58;;;;;;;3.90;1.75;;;31.20;61.50;;;;;;5030687;28;20045;-69
2022/07/12 11:01:27;;;;;;;2.33;1.40;;;31.00;60.80;;;;;;5038796;28;20125;-66
2022/07/12 11:04:09;;;;;;;4.68;1.40;;;31.00;60.90;;;;;;5026913;28;20041;-65
2022/07/12 11:06:41;;;;;;;4.35;1.60;;;30.90;61.00;;;;;;5025685;28;20131;-67
2022/07/12 11:09:11;;;;;;;4.55;1.45;;;30.80;60.90;;;;;;5014787;28;20045;-66
2022/07/12 11:11:48;;;;;;;2.83;1.38;;;30.80;61.60;;;;;;5029299;28;20041;-67
2022/07/12 11:14:26;;;;;;;1.85;1.30;;;30.70;61.70;;;;;;5011730;28;20047;-67
2022/07/12 11:16:55;;;;;;;3.33;1.52;;;30.80;61.80;;;;;;5007132;28;20046;-69
2022/07/12 11:19:27;;;;;;;2.72;2.00;;;30.70;62.20;;;;;;5027166;28;20050;-69
2022/07/12 11:21:57;;;;;;;2.60;1.23;;;30.70;61.30;;;;;;5026455;28;20045;-68
2022/07/12 11:24:30;;;;;;;3.65;1.50;;;30.70;61.90;;;;;;5028673;28;20052;-66
2022/07/12 11:26:59;;;;;;;4.20;1.50;;;30.70;61.60;;;;;;5028251;28;20046;-67
2022/07/12 11:29:27;;;;;;;2.65;1.30;;;30.60;62.70;;;;;;4996641;28;20590;-68
2022/07/12 11:32:07;;;;;;;2.35;1.48;;;30.60;64.20;;;;;;5006054;28;20049;-68
2022/07/12 11:34:37;;;;;;;3.58;1.75;;;30.70;63.20;;;;;;5037993;28;20119;-67
2022/07/12 11:37:05;;;;;;;3.05;1.20;;;30.50;62.10;;;;;;5031867;28;20042;-66
2022/07/12 11:39:37;;;;;;;3.83;1.45;;;30.40;62.60;;;;;;5025729;28;20041;-68
2022/07/12 11:42:06;;;;;;;2.45;1.67;;;30.40;62.70;;;;;;5027832;28;20091;-68
2022/07/12 11:44:49;;;;;;;5.28;1.65;;;30.40;63.40;;;;;;5010956;28;20069;-67
2022/07/12 11:47:18;;;;;;;2.45;1.25;;;30.50;62.20;;;;;;5009849;28;20077;-66
2022/07/12 11:49:54;;;;;;;3.03;1.40;;;30.40;63.00;;;;;;5028242;28;20044;-69
2022/07/12 11:52:24;;;;;;;2.80;1.42;;;30.50;63.10;;;;;;5001881;28;20046;-68
2022/07/12 11:54:52;;;;;;;2.22;1.40;;;30.50;62.40;;;;;;5010081;28;20037;-66
2022/07/12 11:57:23;;;;;;;2.72;1.20;;;30.60;63.10;;;;;;5026186;28;20400;-66
2022/07/12 11:59:51;;;;;;;2.15;1.40;;;30.50;63.30;;;;;;5025582;28;20395;-67
2022/07/12 12:02:19;;;;;;;2.72;1.60;;;30.50;63.50;;;;;;5004298;28;20052;-67
2022/07/12 12:04:53;;;;;;;3.03;1.70;;;30.50;63.60;;;;;;5011565;28;20483;-67
2022/07/12 12:07:23;;;;;;;2.00;1.20;;;30.50;63.50;;;;;;5012177;28;20049;-68
2022/07/12 12:10:04;;;;;;;5.80;1.95;;;30.50;63.60;;;;;;5023553;28;20037;-67
2022/07/12 12:12:54;;;;;;;3.72;1.80;;;30.50;63.50;;;;;;4999587;28;20694;-67
2022/07/12 12:15:33;;;;;;;3.38;1.50;;;30.40;62.70;;;;;;5022197;28;20050;-67
2022/07/12 12:18:04;;;;;;;2.35;1.50;;;30.30;63.40;;;;;;5029705;28;20060;-73
2022/07/12 12:20:34;;;;;;;5.55;1.70;;;30.20;63.40;;;;;;4994118;28;20077;-69
2022/07/12 12:23:03;;;;;;;3.28;1.30;;;30.20;63.70;;;;;;5028992;28;20049;-68
2022/07/12 12:25:32;;;;;;;2.70;1.40;;;30.00;63.10;;;;;;5028335;28;20045;-69
2022/07/12 12:28:04;;;;;;;4.07;1.50;;;29.90;63.20;;;;;;5029966;28;20038;-67
2022/07/12 12:30:54;;;;;;;1.85;1.48;;;30.00;63.70;;;;;;5025483;28;20137;-67
2022/07/12 12:33:42;;;;;;;3.83;1.65;;;29.90;63.70;;;;;;5009921;28;20141;-67
2022/07/12 12:36:20;;;;;;;2.50;1.40;;;29.90;63.60;;;;;;5022172;28;20041;-66
2022/07/12 12:38:50;;;;;;;2.08;1.40;;;29.90;64.20;;;;;;5030193;28;20045;-67
2022/07/12 12:41:22;;;;;;;4.05;2.33;;;30.00;64.00;;;;;;5021318;28;20049;-68
2022/07/12 12:44:12;;;;;;;3.35;1.40;;;29.90;63.80;;;;;;5029742;28;20510;-68
2022/07/12 12:49:51;;;;;;;12.55;2.47;;;30.00;63.70;;;;;;5028237;28;20068;-67
2022/07/12 12:52:23;;;;;;;2.80;1.50;;;30.00;64.30;;;;;;5028971;28;20049;-68
2022/07/12 12:54:52;;;;;;;3.97;1.58;;;30.00;64.40;;;;;;5026884;28;20045;-67
2022/07/12 12:57:20;;;;;;;2.55;1.40;;;30.10;63.50;;;;;;5020931;28;20055;-69
2022/07/12 12:59:48;;;;;;;2.95;1.00;;;30.10;63.40;;;;;;5010753;28;22303;-68
2022/07/12 13:02:16;;;;;;;2.72;1.45;;;30.20;63.90;;;;;;5024152;28;20049;-68
2022/07/12 13:04:43;;;;;;;2.00;1.20;;;30.20;63.60;;;;;;5009909;28;20074;-68
2022/07/12 13:07:11;;;;;;;3.40;1.35;;;30.20;62.80;;;;;;5009937;28;20065;-68
2022/07/12 13:09:40;;;;;;;5.00;1.70;;;30.20;63.10;;;;;;5008944;28;20038;-67
2022/07/12 13:12:09;;;;;;;3.17;1.33;;;30.20;63.70;;;;;;5024558;28;20042;-67
2022/07/12 13:14:37;;;;;;;2.58;1.48;;;30.00;63.60;;;;;;5010453;28;20046;-67